createdAt,value
2018-08-20T00:02:00.632Z,0.30
2018-08-20T00:04:31.536Z,0.20
2018-08-20T00:07:00.485Z,0.30
2018-08-20T00:09:46.682Z,0.30
2018-08-20T00:12:20.423Z,0.20
2018-08-20T00:14:49.348Z,0.30
2018-08-20T00:17:18.273Z,0.30
2018-08-20T00:19:51.944Z,0.20
2018-08-20T00:22:20.860Z,0.20
2018-08-20T00:25:01.473Z,0.30
2018-08-20T00:27:31.739Z,0.27
2018-08-20T00:30:00.728Z,0.20
2018-08-20T00:32:29.683Z,0.30
2018-08-20T00:34:58.654Z,0.20
2018-08-20T00:37:27.638Z,0.20
2018-08-20T00:39:56.611Z,0.20
2018-08-20T00:42:25.565Z,0.20
2018-08-20T00:44:54.540Z,0.20
2018-08-20T00:47:23.472Z,0.23
2018-08-20T00:49:52.589Z,0.30
2018-08-20T00:52:22.208Z,0.20
2018-08-20T00:54:51.785Z,0.20
2018-08-20T00:57:20.777Z,0.30
2018-08-20T00:59:49.761Z,0.30
2018-08-20T01:02:22.988Z,0.20
2018-08-20T01:04:51.975Z,0.20
2018-08-20T01:07:20.904Z,0.40
2018-08-20T01:09:49.849Z,0.20
2018-08-20T01:12:18.832Z,0.23
2018-08-20T01:14:47.776Z,0.30
2018-08-20T01:17:16.768Z,0.30
2018-08-20T01:19:45.748Z,0.20
2018-08-20T01:22:14.688Z,0.30
2018-08-20T01:24:43.712Z,0.30
2018-08-20T01:27:16.869Z,0.20
2018-08-20T01:29:45.836Z,0.20
2018-08-20T01:32:14.815Z,0.20
2018-08-20T01:34:43.790Z,0.10
2018-08-20T01:37:14.227Z,0.30
2018-08-20T01:39:43.166Z,0.20
2018-08-20T01:42:12.596Z,0.27
2018-08-20T01:44:41.546Z,0.20
2018-08-20T01:47:10.523Z,0.27
2018-08-20T01:49:39.496Z,0.20
2018-08-20T01:52:08.477Z,0.20
2018-08-20T01:54:37.778Z,0.10
2018-08-20T01:57:07.489Z,0.40
2018-08-20T01:59:37.191Z,0.20
2018-08-20T02:02:06.666Z,0.30
2018-08-20T02:04:36.216Z,0.20
2018-08-20T02:07:05.152Z,0.20
2018-08-20T02:09:34.249Z,0.13
2018-08-20T02:12:03.193Z,0.20
2018-08-20T02:14:32.154Z,0.20
2018-08-20T02:17:01.069Z,0.20
2018-08-20T02:19:30.017Z,0.20
2018-08-20T02:21:58.962Z,0.20
2018-08-20T02:24:28.767Z,0.20
2018-08-20T02:26:57.677Z,0.30
2018-08-20T02:29:26.603Z,0.20
2018-08-20T02:31:55.546Z,0.40
2018-08-20T02:34:24.490Z,0.27
2018-08-20T02:36:53.424Z,0.30
2018-08-20T02:39:22.356Z,0.30
2018-08-20T02:41:51.314Z,0.27
2018-08-20T02:44:20.302Z,0.20
2018-08-20T02:46:50.943Z,0.20
2018-08-20T02:49:20.135Z,0.20
2018-08-20T02:51:49.855Z,0.20
2018-08-20T02:54:18.823Z,0.20
2018-08-20T02:56:47.823Z,0.30
2018-08-20T02:59:16.756Z,0.20
2018-08-20T03:01:45.712Z,0.30
2018-08-20T03:04:14.832Z,0.30
2018-08-20T03:06:43.780Z,0.20
2018-08-20T03:09:15.777Z,0.20
2018-08-20T03:11:44.714Z,0.20
2018-08-20T03:14:13.702Z,0.27
2018-08-20T03:16:42.670Z,0.30
2018-08-20T03:19:11.578Z,0.30
2018-08-20T03:21:40.790Z,0.30
2018-08-20T03:24:09.705Z,0.30
2018-08-20T03:26:38.627Z,0.20
2018-08-20T03:29:07.567Z,0.20
2018-08-20T03:31:42.129Z,0.20
2018-08-20T03:34:11.083Z,0.30
2018-08-20T03:36:40.021Z,0.20
2018-08-20T03:39:09.044Z,0.20
2018-08-20T03:41:38.378Z,0.20
2018-08-20T03:44:07.299Z,0.20
2018-08-20T03:46:36.208Z,0.40
2018-08-20T03:49:05.378Z,0.30
2018-08-20T03:51:35.408Z,0.20
2018-08-20T03:54:04.340Z,0.30
2018-08-20T03:56:33.258Z,0.30
2018-08-20T03:59:02.157Z,0.30
2018-08-20T04:01:35.821Z,0.30
2018-08-20T04:04:04.848Z,0.30
2018-08-20T04:06:33.820Z,0.23
2018-08-20T04:09:02.831Z,0.30
2018-08-20T04:11:32.982Z,0.20
2018-08-20T04:14:04.592Z,0.20
2018-08-20T04:16:33.580Z,0.30
2018-08-20T04:19:06.175Z,0.30
2018-08-20T04:21:36.876Z,0.20
2018-08-20T04:24:06.128Z,0.30
2018-08-20T04:26:35.031Z,0.30
2018-08-20T04:29:03.945Z,0.33
2018-08-20T04:31:32.927Z,0.20
2018-08-20T04:34:01.862Z,0.30
2018-08-20T04:36:31.069Z,0.30
2018-08-20T04:39:00.014Z,0.30
2018-08-20T04:41:30.208Z,0.30
2018-08-20T04:43:59.257Z,0.20
2018-08-20T04:46:28.194Z,0.30
2018-08-20T04:48:57.191Z,0.20
2018-08-20T04:51:27.598Z,0.27
2018-08-20T04:53:56.360Z,0.20
2018-08-20T04:56:25.980Z,0.20
2018-08-20T04:58:55.206Z,0.23
2018-08-20T05:01:25.569Z,0.10
2018-08-20T05:03:54.789Z,0.30
2018-08-20T05:06:23.700Z,0.20
2018-08-20T05:08:52.643Z,0.20
2018-08-20T05:11:23.196Z,0.30
2018-08-20T05:13:52.162Z,0.30
2018-08-20T05:16:21.121Z,0.27
2018-08-20T05:18:50.175Z,0.20
2018-08-20T05:21:19.106Z,0.30
2018-08-20T05:23:48.025Z,0.30
2018-08-20T05:26:19.147Z,0.33
2018-08-20T05:28:48.086Z,0.20
2018-08-20T05:31:17.545Z,0.10
2018-08-20T05:33:46.684Z,0.23
2018-08-20T05:36:15.604Z,0.33
2018-08-20T05:38:44.557Z,0.30
2018-08-20T05:41:16.960Z,0.20
2018-08-20T05:43:45.968Z,0.17
2018-08-20T05:46:15.192Z,0.40
2018-08-20T05:48:44.124Z,0.10
2018-08-20T05:51:13.500Z,0.20
2018-08-20T05:53:42.433Z,0.20
2018-08-20T05:56:11.357Z,0.20
2018-08-20T05:58:40.308Z,0.20
2018-08-20T06:01:09.237Z,0.30
2018-08-20T06:03:38.194Z,0.20
2018-08-20T06:06:07.264Z,0.30
2018-08-20T06:08:36.233Z,0.40
2018-08-20T06:11:05.161Z,0.30
2018-08-20T06:13:34.124Z,0.30
2018-08-20T06:16:03.131Z,0.47
2018-08-20T06:18:32.078Z,0.30
2018-08-20T06:21:02.068Z,0.40
2018-08-20T06:23:31.119Z,0.30
2018-08-20T06:26:00.089Z,0.40
2018-08-20T06:28:29.030Z,0.40
2018-08-20T06:30:59.573Z,0.50
2018-08-20T06:33:28.559Z,0.50
2018-08-20T06:35:57.477Z,0.50
2018-08-20T06:38:26.428Z,0.45
2018-08-20T06:40:55.482Z,0.55
2018-08-20T06:43:24.395Z,0.50
2018-08-20T06:45:53.393Z,0.40
2018-08-20T06:48:22.357Z,0.50
2018-08-20T06:50:52.084Z,0.40
2018-08-20T06:53:21.036Z,0.40
2018-08-20T06:55:49.965Z,0.40
2018-08-20T06:58:18.937Z,0.50
2018-08-20T07:00:47.994Z,0.40
2018-08-20T07:03:17.145Z,0.47
2018-08-20T07:05:46.265Z,0.50
2018-08-20T07:08:15.356Z,0.40
2018-08-20T07:10:46.954Z,0.40
2018-08-20T07:13:22.912Z,0.50
2018-08-20T07:15:51.837Z,0.50
2018-08-20T07:18:20.864Z,0.50
2018-08-20T07:20:49.840Z,0.60
2018-08-20T07:23:19.594Z,0.53
2018-08-20T07:25:49.274Z,0.60
2018-08-20T07:28:18.251Z,0.40
2018-08-20T07:30:47.337Z,0.50
2018-08-20T07:33:16.372Z,0.60
2018-08-20T07:35:45.570Z,0.50
2018-08-20T07:38:14.551Z,0.65
2018-08-20T07:40:43.696Z,0.50
2018-08-20T07:43:12.646Z,0.60
2018-08-20T07:45:41.617Z,0.60
2018-08-20T07:48:10.807Z,0.60
2018-08-20T07:50:39.761Z,0.50
2018-08-20T07:53:08.769Z,0.50
2018-08-20T07:55:37.759Z,0.60
2018-08-20T07:58:07.733Z,0.50
2018-08-20T08:00:37.432Z,0.50
2018-08-20T08:03:07.141Z,0.50
2018-08-20T08:05:37.480Z,0.45
2018-08-20T08:08:06.770Z,0.50
2018-08-20T08:10:37.094Z,0.50
2018-08-20T08:13:06.173Z,0.50
2018-08-20T08:15:35.124Z,0.60
2018-08-20T08:18:04.073Z,0.50
2018-08-20T08:20:33.212Z,0.50
2018-08-20T08:23:02.152Z,0.50
2018-08-20T08:25:31.101Z,0.60
2018-08-20T08:28:00.029Z,0.57
2018-08-20T08:30:33.344Z,0.53
2018-08-20T08:33:02.316Z,0.50
2018-08-20T08:35:31.302Z,0.45
2018-08-20T08:38:00.232Z,0.70
2018-08-20T08:40:29.186Z,0.60
2018-08-20T08:42:58.831Z,0.60
2018-08-20T08:45:28.438Z,0.60
2018-08-20T08:47:57.373Z,0.70
2018-08-20T08:50:26.309Z,0.55
2018-08-20T08:52:55.412Z,0.60
2018-08-20T08:55:24.344Z,0.60
2018-08-20T08:57:53.331Z,0.70
2018-08-20T09:00:22.268Z,0.70
2018-08-20T09:02:51.207Z,0.60
2018-08-20T09:05:21.205Z,0.60
2018-08-20T09:07:51.027Z,0.60
2018-08-20T09:10:19.976Z,0.60
2018-08-20T09:12:48.969Z,0.55
2018-08-20T09:15:18.360Z,0.60
2018-08-20T09:17:48.130Z,0.60
2018-08-20T09:20:18.349Z,0.60
2018-08-20T09:22:47.285Z,0.50
2018-08-20T09:25:16.232Z,0.55
2018-08-20T09:27:45.790Z,0.60
2018-08-20T09:30:24.248Z,0.53
2018-08-20T09:32:53.196Z,0.80
2018-08-20T09:35:22.192Z,0.50
2018-08-20T09:37:51.151Z,0.68
2018-08-20T09:40:20.098Z,0.60
2018-08-20T09:42:49.089Z,0.60
2018-08-20T09:45:18.087Z,0.50
2018-08-20T09:47:48.259Z,0.70
2018-08-20T09:50:17.696Z,0.70
2018-08-20T09:52:47.563Z,0.65
2018-08-20T09:55:17.375Z,0.50
2018-08-20T09:57:46.303Z,0.60
2018-08-20T10:00:21.882Z,0.50
2018-08-20T10:02:51.616Z,0.60
2018-08-20T10:05:20.768Z,0.55
2018-08-20T10:07:50.163Z,0.60
2018-08-20T10:10:19.126Z,0.60
2018-08-20T10:12:48.091Z,0.60
2018-08-20T10:15:17.079Z,0.60
2018-08-20T10:17:46.024Z,0.75
2018-08-20T10:20:15.909Z,0.50
2018-08-20T10:22:44.832Z,0.60
2018-08-20T10:25:13.792Z,0.70
2018-08-20T10:27:43.005Z,0.60
2018-08-20T10:30:13.021Z,0.65
2018-08-20T10:32:42.628Z,0.70
2018-08-20T10:35:11.548Z,0.60
2018-08-20T10:37:40.546Z,0.60
2018-08-20T10:40:09.664Z,0.60
2018-08-20T10:42:39.266Z,0.60
2018-08-20T10:45:16.357Z,0.60
2018-08-20T10:47:46.677Z,0.45
2018-08-20T10:50:17.120Z,0.60
2018-08-20T10:52:47.729Z,0.60
2018-08-20T10:55:17.021Z,0.70
2018-08-20T10:57:46.252Z,0.60
2018-08-20T11:00:15.956Z,0.60
2018-08-20T11:02:44.902Z,0.78
2018-08-20T11:05:18.190Z,0.70
2018-08-20T11:07:47.251Z,0.62
2018-08-20T11:10:17.403Z,0.55
2018-08-20T11:12:46.362Z,0.60
2018-08-20T11:15:15.350Z,0.68
2018-08-20T11:17:44.306Z,0.70
2018-08-20T11:20:15.744Z,0.70
2018-08-20T11:22:44.909Z,0.50
2018-08-20T11:25:14.326Z,0.60
2018-08-20T11:27:43.358Z,0.60
2018-08-20T11:30:13.636Z,0.60
2018-08-20T11:32:42.632Z,0.60
2018-08-20T11:35:12.204Z,0.65
2018-08-20T11:37:41.872Z,0.60
2018-08-20T11:40:10.888Z,0.60
2018-08-20T11:42:39.904Z,0.40
2018-08-20T11:45:10.862Z,0.40
2018-08-20T11:47:39.845Z,0.45
2018-08-20T11:50:08.966Z,0.47
2018-08-20T11:52:38.532Z,0.50
2018-08-20T11:55:07.621Z,0.60
2018-08-20T11:57:36.634Z,0.60
2018-08-20T12:00:07.913Z,0.60
2018-08-20T12:02:36.885Z,0.50
2018-08-20T12:05:08.019Z,0.50
2018-08-20T12:07:37.107Z,0.68
2018-08-20T12:10:07.918Z,0.60
2018-08-20T12:12:37.742Z,0.60
2018-08-20T12:15:08.107Z,0.50
2018-08-20T12:17:37.098Z,0.60
2018-08-20T12:20:06.788Z,0.60
2018-08-20T12:22:35.892Z,0.62
2018-08-20T12:25:05.438Z,0.60
2018-08-20T12:27:34.585Z,0.60
2018-08-20T12:30:03.520Z,0.70
2018-08-20T12:32:32.506Z,0.50
2018-08-20T12:35:01.468Z,0.60
2018-08-20T12:37:30.517Z,0.50
2018-08-20T12:39:59.548Z,0.50
2018-08-20T12:42:28.381Z,0.60
2018-08-20T12:44:57.924Z,0.50
2018-08-20T12:47:27.435Z,0.60
2018-08-20T12:49:56.428Z,0.40
2018-08-20T12:52:25.819Z,0.40
2018-08-20T12:54:54.726Z,0.47
2018-08-20T12:57:23.676Z,0.70
2018-08-20T12:59:54.488Z,0.62
2018-08-20T13:02:23.433Z,0.50
2018-08-20T13:04:52.709Z,0.57
2018-08-20T13:07:21.871Z,0.70
2018-08-20T13:09:50.802Z,0.60
2018-08-20T13:12:19.756Z,0.75
2018-08-20T13:14:48.696Z,0.70
2018-08-20T13:17:18.400Z,0.70
2018-08-20T13:19:47.391Z,0.70
2018-08-20T13:22:16.552Z,0.70
2018-08-20T13:24:45.480Z,0.70
2018-08-20T13:27:14.416Z,0.70
2018-08-20T13:29:43.361Z,0.60
2018-08-20T13:32:12.306Z,0.60
2018-08-20T13:34:41.254Z,0.60
2018-08-20T13:37:10.262Z,0.60
2018-08-20T13:39:39.190Z,0.70
2018-08-20T13:42:08.183Z,0.60
2018-08-20T13:44:37.133Z,0.60
2018-08-20T13:47:06.346Z,0.50
2018-08-20T13:49:35.413Z,0.40
2018-08-20T13:52:04.353Z,0.70
2018-08-20T13:54:33.369Z,0.50
2018-08-20T13:57:02.304Z,0.60
2018-08-20T13:59:31.224Z,0.50
2018-08-20T14:02:04.915Z,0.60
2018-08-20T14:04:34.077Z,0.55
2018-08-20T14:07:03.005Z,0.60
2018-08-20T14:09:31.946Z,0.60
2018-08-20T14:12:00.906Z,0.40
2018-08-20T14:14:29.860Z,0.50
2018-08-20T14:16:58.856Z,0.50
2018-08-20T14:19:27.831Z,0.50
2018-08-20T14:21:56.808Z,0.60
2018-08-20T14:24:25.856Z,0.60
2018-08-20T14:26:54.805Z,0.68
2018-08-20T14:29:23.764Z,0.50
2018-08-20T14:31:53.423Z,0.70
2018-08-20T14:34:22.341Z,0.60
2018-08-20T14:36:51.343Z,0.78
2018-08-20T14:39:21.021Z,0.60
2018-08-20T14:41:50.744Z,0.50
2018-08-20T14:44:19.703Z,0.50
2018-08-20T14:46:48.692Z,0.50
2018-08-20T14:49:17.691Z,0.60
2018-08-20T14:51:47.361Z,0.60
2018-08-20T14:54:18.705Z,0.57
2018-08-20T14:56:47.843Z,0.57
2018-08-20T14:59:16.818Z,0.60
2018-08-20T15:01:46.461Z,0.47
2018-08-20T15:04:15.493Z,0.50
2018-08-20T15:07:07.511Z,0.50
2018-08-20T15:09:36.689Z,0.60
2018-08-20T15:12:05.772Z,0.53
2018-08-20T15:14:34.765Z,0.40
2018-08-20T15:17:03.749Z,0.50
2018-08-20T15:19:32.679Z,0.50
2018-08-20T15:22:02.872Z,0.40
2018-08-20T15:24:31.827Z,0.50
2018-08-20T15:27:00.931Z,0.50
2018-08-20T15:29:29.972Z,0.60
2018-08-20T15:31:59.575Z,0.40
2018-08-20T15:34:28.521Z,0.50
2018-08-20T15:36:57.456Z,0.33
2018-08-20T15:39:40.014Z,0.50
2018-08-20T15:42:08.859Z,0.50
2018-08-20T15:44:37.783Z,0.50
2018-08-20T15:47:06.716Z,0.40
2018-08-20T15:49:35.654Z,0.50
2018-08-20T15:52:04.584Z,0.50
2018-08-20T15:54:33.590Z,0.27
2018-08-20T15:57:02.539Z,0.33
2018-08-20T15:59:31.509Z,0.30
2018-08-20T16:02:00.503Z,0.47
2018-08-20T16:04:29.504Z,0.30
2018-08-20T16:06:58.473Z,0.40
2018-08-20T16:09:27.437Z,0.40
2018-08-20T16:11:57.544Z,0.43
2018-08-20T16:14:32.599Z,0.40
2018-08-20T16:17:01.519Z,0.37
2018-08-20T16:19:30.432Z,0.30
2018-08-20T16:21:59.431Z,0.20
2018-08-20T16:24:28.370Z,0.37
2018-08-20T16:26:57.300Z,0.30
2018-08-20T16:29:26.239Z,0.50
2018-08-20T16:31:55.168Z,0.40
2018-08-20T16:34:24.117Z,0.40
2018-08-20T16:36:53.028Z,0.30
2018-08-20T16:39:22.025Z,0.50
2018-08-20T16:41:50.933Z,0.40
2018-08-20T16:44:19.868Z,0.40
2018-08-20T16:46:48.773Z,0.33
2018-08-20T16:49:17.691Z,0.27
2018-08-20T16:51:46.684Z,0.30
2018-08-20T16:54:15.672Z,0.30
2018-08-20T16:56:44.595Z,0.40
2018-08-20T16:59:13.565Z,0.40
2018-08-20T17:01:42.507Z,0.40
2018-08-20T17:04:29.878Z,0.40
2018-08-20T17:07:00.574Z,0.30
2018-08-20T17:09:29.860Z,0.30
2018-08-20T17:11:58.876Z,0.30
2018-08-20T17:14:27.790Z,0.40
2018-08-20T17:16:56.715Z,0.40
2018-08-20T17:19:25.626Z,0.30
2018-08-20T17:21:54.570Z,0.30
2018-08-20T17:24:29.023Z,0.40
2018-08-20T17:26:59.398Z,0.30
2018-08-20T17:29:28.371Z,0.30
2018-08-20T17:31:57.327Z,0.30
2018-08-20T17:34:26.264Z,0.30
2018-08-20T17:36:55.193Z,0.20
2018-08-20T17:39:24.353Z,0.30
2018-08-20T17:41:53.491Z,0.30
2018-08-20T17:44:23.632Z,0.40
2018-08-20T17:46:52.583Z,0.30
2018-08-20T17:49:26.891Z,0.33
2018-08-20T17:51:55.812Z,0.30
2018-08-20T17:54:26.444Z,0.50
2018-08-20T17:56:55.377Z,0.47
2018-08-20T17:59:24.320Z,0.30
2018-08-20T18:01:53.291Z,0.50
2018-08-20T18:04:22.269Z,0.50
2018-08-20T18:06:54.752Z,0.33
2018-08-20T18:09:23.704Z,0.43
2018-08-20T18:11:53.891Z,0.43
2018-08-20T18:14:24.236Z,0.30
2018-08-20T18:16:53.146Z,0.40
2018-08-20T18:19:22.151Z,0.50
2018-08-20T18:21:51.070Z,0.30
2018-08-20T18:24:21.204Z,0.37
2018-08-20T18:26:53.686Z,0.37
2018-08-20T18:29:22.627Z,0.50
2018-08-20T18:31:56.763Z,0.50
2018-08-20T18:34:26.818Z,0.40
2018-08-20T18:36:55.770Z,0.50
2018-08-20T18:39:24.701Z,0.40
2018-08-20T18:42:03.619Z,0.50
2018-08-20T18:44:32.613Z,0.40
2018-08-20T18:47:01.635Z,0.20
2018-08-20T18:49:30.633Z,0.30
2018-08-20T18:52:06.376Z,0.50
2018-08-20T18:54:37.393Z,0.50
2018-08-20T18:57:06.688Z,0.47
2018-08-20T18:59:37.074Z,0.40
2018-08-20T19:02:07.127Z,0.40
2018-08-20T19:04:41.488Z,0.40
2018-08-20T19:07:12.704Z,0.40
2018-08-20T19:09:46.066Z,0.30
2018-08-20T19:12:15.075Z,0.30
2018-08-20T19:14:44.060Z,0.30
2018-08-20T19:17:18.333Z,0.40
2018-08-20T19:19:49.418Z,0.40
2018-08-20T19:22:23.731Z,0.50
2018-08-20T19:24:52.657Z,0.40
2018-08-20T19:27:21.588Z,0.30
2018-08-20T19:29:50.534Z,0.40
2018-08-20T19:32:19.431Z,0.50
2018-08-20T19:34:49.316Z,0.47
2018-08-20T19:37:18.284Z,0.50
2018-08-20T19:39:47.204Z,0.40
2018-08-20T19:42:21.573Z,0.43
2018-08-20T19:44:50.603Z,0.37
2018-08-20T19:47:19.511Z,0.33
2018-08-20T19:49:48.425Z,0.50
2018-08-20T19:52:17.395Z,0.50
2018-08-20T19:54:48.229Z,0.50
2018-08-20T19:57:17.151Z,0.40
2018-08-20T19:59:46.099Z,0.50
2018-08-20T20:02:15.077Z,0.30
2018-08-20T20:04:43.997Z,0.40
2018-08-20T20:07:12.932Z,0.40
2018-08-20T20:09:41.979Z,0.30
2018-08-20T20:12:10.891Z,0.50
2018-08-20T20:14:44.017Z,0.53
2018-08-20T20:17:12.951Z,0.43
2018-08-20T20:19:41.869Z,0.50
2018-08-20T20:22:15.336Z,0.40
2018-08-20T20:24:44.262Z,0.50
2018-08-20T20:27:13.224Z,0.50
2018-08-20T20:29:42.194Z,0.40
2018-08-20T20:32:11.167Z,0.47
2018-08-20T20:34:40.245Z,0.30
2018-08-20T20:37:09.204Z,0.40
2018-08-20T20:39:43.514Z,0.50
2018-08-20T20:42:13.656Z,0.50
2018-08-20T20:44:42.580Z,0.50
2018-08-20T20:47:11.576Z,0.40
2018-08-20T20:49:40.446Z,0.40
2018-08-20T20:52:09.412Z,0.50
2018-08-20T20:54:38.371Z,0.47
2018-08-20T20:57:07.396Z,0.50
2018-08-20T20:59:36.384Z,0.50
2018-08-20T21:02:05.322Z,0.40
2018-08-20T21:04:35.392Z,0.40
2018-08-20T21:07:04.642Z,0.40
2018-08-20T21:09:39.022Z,0.40
2018-08-20T21:12:07.989Z,0.50
2018-08-20T21:14:36.984Z,0.50
2018-08-20T21:17:05.933Z,0.30
2018-08-20T21:19:35.788Z,0.50
2018-08-20T21:22:06.591Z,0.40
2018-08-20T21:24:35.648Z,0.40
2018-08-20T21:27:11.393Z,0.30
2018-08-20T21:29:40.333Z,0.40
2018-08-20T21:32:09.300Z,0.40
2018-08-20T21:34:41.033Z,0.30
2018-08-20T21:37:10.531Z,0.30
2018-08-20T21:39:39.916Z,0.40
2018-08-20T21:42:08.949Z,0.20
2018-08-20T21:44:37.976Z,0.40
2018-08-20T21:47:28.117Z,0.30
2018-08-20T21:49:57.093Z,0.40
2018-08-20T21:52:26.085Z,0.50
2018-08-20T21:54:55.091Z,0.40
2018-08-20T21:57:24.082Z,0.30
2018-08-20T22:00:02.570Z,0.37
2018-08-20T22:02:32.503Z,0.40
2018-08-20T22:05:02.521Z,0.30
2018-08-20T22:07:31.489Z,0.30
2018-08-20T22:10:00.510Z,0.50
2018-08-20T22:12:29.436Z,0.40
2018-08-20T22:14:58.326Z,0.23
2018-08-20T22:17:29.347Z,0.40
2018-08-20T22:19:58.618Z,0.40
2018-08-20T22:22:28.528Z,0.20
2018-08-20T22:25:00.013Z,0.20
2018-08-20T22:27:29.952Z,0.23
2018-08-20T22:30:01.890Z,0.20
2018-08-20T22:32:32.015Z,0.30
2018-08-20T22:35:01.009Z,0.50
2018-08-20T22:37:29.925Z,0.30
2018-08-20T22:40:04.908Z,0.30
2018-08-20T22:42:52.449Z,0.40
2018-08-20T22:45:21.855Z,0.30
2018-08-20T22:47:51.422Z,0.23
2018-08-20T22:50:20.462Z,0.20
2018-08-20T22:52:50.605Z,0.30
2018-08-20T22:55:20.718Z,0.27
2018-08-20T22:58:01.210Z,0.30
2018-08-20T23:00:30.156Z,0.20
2018-08-20T23:03:01.972Z,0.30
2018-08-20T23:05:31.928Z,0.30
2018-08-20T23:08:07.111Z,0.30
2018-08-20T23:10:39.452Z,0.20
2018-08-20T23:13:08.507Z,0.20
2018-08-20T23:15:37.415Z,0.20
2018-08-20T23:18:06.325Z,0.30
2018-08-20T23:20:35.256Z,0.20
2018-08-20T23:23:04.280Z,0.30
2018-08-20T23:25:33.184Z,0.23
2018-08-20T23:28:02.541Z,0.20
2018-08-20T23:30:31.887Z,0.30
2018-08-20T23:44:27.302Z,0.30
2018-08-20T23:46:56.299Z,0.30
2018-08-20T23:49:25.238Z,0.20
2018-08-20T23:51:54.708Z,0.27
2018-08-20T23:54:23.642Z,0.30
2018-08-20T23:56:52.608Z,0.30
2018-08-20T23:59:21.553Z,0.27
